To NAV CANADA Home Page Login to a new session Search on AWWS site Disclaimer Vers la page française équivalente Tips FAQ What's new on the site To the Forecasts and Observations / NOTAM section To "File a Flight Plan" website Publications and other links Update of the User's profile FIC Telephone Numbers My Weather Data Folder Route Weather Data Regional Weather Data Local Weather Data To the Forecasts and Observations / NOTAM section
Request Generated 12/12/2018 at 02:49:39 UTC . Weather information available at that time is displayed.

METAR/TAF

EUREKA/NU    

METAR CWEU 120200Z 01007KT 15SM OVC050 M18/M20 A2924 RMK SC8 SLP903=
METAR CWEU 120100Z 01008KT 12SM -SN OVC055 M17/M20 A2924 RMK SC8 SLP905=
METAR CWEU 120000Z 29005KT 12SM -SN OVC060 M17/M20 A2925 RMK SC8 SLP906=

*** REMARK        : Forecast period has ended; this was the last TAF issued
*** REMARQUE : La période de prévision est échue; ceci était le dernier TAF qui a été émis
TAF CYEU 112338Z 1200/1202 ADVISORY OFFSITE VRB03KT P6SM -SN OVC080
TEMPO 1200/1202 P6SM NSW
RMK NXT FCST WILL BE ISSUED AT 121045Z=
Your time UTC time
Weather data provided by Environment Canada and NAV CANADA